createdAt,value
2023-04-11T00:01:14.171Z,1.73
2023-04-11T00:05:01.169Z,0.90
2023-04-11T00:08:44.734Z,1.25
2023-04-11T00:12:31.622Z,1.05
2023-04-11T00:16:25.541Z,1.40
2023-04-11T00:20:19.414Z,1.05
2023-04-11T00:24:11.842Z,1.30
2023-04-11T00:27:57.577Z,1.13
2023-04-11T00:31:39.879Z,1.17
2023-04-11T00:35:35.383Z,1.10
2023-04-11T00:39:33.718Z,1.35
2023-04-11T00:43:16.020Z,1.20
2023-04-11T00:47:07.383Z,1.10
2023-04-11T00:50:56.199Z,1.30
2023-04-11T00:54:59.251Z,1.10
2023-04-11T00:58:43.938Z,1.20
2023-04-11T01:02:28.428Z,1.20
2023-04-11T01:06:16.932Z,0.90
2023-04-11T01:10:01.781Z,1.10
2023-04-11T01:18:50.260Z,1.05
2023-04-11T01:22:37.039Z,1.00
2023-04-11T01:26:22.095Z,0.95
2023-04-11T01:30:19.899Z,0.70
2023-04-11T01:34:11.320Z,1.30
2023-04-11T01:38:04.841Z,1.10
2023-04-11T01:41:50.323Z,1.02
2023-04-11T01:45:37.277Z,1.10
2023-04-11T01:49:20.669Z,1.00
2023-04-11T01:53:26.263Z,0.80
2023-04-11T01:57:10.114Z,1.00
2023-04-11T02:00:55.080Z,0.93
2023-04-11T02:04:40.785Z,1.65
2023-04-11T02:08:26.087Z,1.02
2023-04-11T02:12:20.632Z,1.23
2023-04-11T02:16:20.908Z,1.35
2023-04-11T02:20:08.351Z,0.95
2023-04-11T02:23:54.268Z,1.20
2023-04-11T02:27:36.728Z,1.42
2023-04-11T02:31:26.902Z,1.23
2023-04-11T02:35:33.583Z,1.00
2023-04-11T02:39:21.959Z,1.03
2023-04-11T02:43:11.382Z,1.40
2023-04-11T02:46:53.694Z,1.10
2023-04-11T02:50:39.171Z,0.83
2023-04-11T02:54:53.909Z,1.17
2023-04-11T02:58:45.824Z,1.08
2023-04-11T03:02:30.295Z,1.40
2023-04-11T03:06:15.453Z,1.50
2023-04-11T03:10:02.329Z,1.13
2023-04-11T03:14:01.756Z,1.05
2023-04-11T03:18:00.912Z,1.80
2023-04-11T03:21:43.116Z,0.60
2023-04-11T03:25:26.376Z,0.55
2023-04-11T03:29:18.684Z,0.60
2023-04-11T03:33:01.319Z,0.40
2023-04-11T03:36:43.875Z,0.40
2023-04-11T03:40:26.029Z,0.90
2023-04-11T03:44:11.954Z,0.40
2023-04-11T03:47:54.344Z,0.77
2023-04-11T03:51:39.620Z,0.60
2023-04-11T03:55:24.031Z,0.50
2023-04-11T03:59:06.220Z,0.70
2023-04-11T04:02:49.784Z,0.77
2023-04-11T04:06:32.177Z,0.60
2023-04-11T04:10:19.238Z,0.50
2023-04-11T04:14:03.577Z,0.65
2023-04-11T04:17:45.781Z,0.70
2023-04-11T04:21:33.994Z,1.00
2023-04-11T04:25:17.060Z,0.70
2023-04-11T04:29:06.025Z,0.90
2023-04-11T04:32:59.301Z,1.43
2023-04-11T04:36:48.076Z,0.85
2023-04-11T04:40:32.909Z,0.70
2023-04-11T04:44:19.838Z,0.90
2023-04-11T04:48:03.137Z,0.65
2023-04-11T04:51:48.437Z,0.80
2023-04-11T04:55:30.678Z,0.87
2023-04-11T04:59:15.898Z,0.70
2023-04-11T05:03:01.717Z,0.77
2023-04-11T05:06:47.131Z,0.80
2023-04-11T05:10:29.344Z,0.70
2023-04-11T05:14:11.444Z,0.93
2023-04-11T05:17:56.218Z,0.63
2023-04-11T05:21:41.760Z,0.53
2023-04-11T05:25:27.636Z,0.82
2023-04-11T05:29:13.659Z,0.93
2023-04-11T05:37:07.291Z,0.90
2023-04-11T05:46:08.016Z,0.88
2023-04-11T05:50:26.101Z,1.10
2023-04-11T05:54:09.593Z,0.93
2023-04-11T05:58:14.659Z,1.15
2023-04-11T06:01:57.165Z,1.10
2023-04-11T06:06:07.874Z,0.97
2023-04-11T06:09:50.725Z,1.17
2023-04-11T06:30:52.862Z,0.97
2023-04-11T06:34:37.140Z,1.17
2023-04-11T06:38:38.297Z,0.93
2023-04-11T06:42:20.726Z,1.05
2023-04-11T06:46:02.904Z,0.77
2023-04-11T06:49:55.935Z,1.10
2023-04-11T06:53:41.813Z,0.88
2023-04-11T06:57:58.736Z,1.20
2023-04-11T07:01:46.821Z,1.13
2023-04-11T07:05:52.910Z,0.93
2023-04-11T07:23:55.276Z,0.85
2023-04-11T07:32:02.874Z,0.88
2023-04-11T22:16:13.186Z,2.10
2023-04-11T23:17:10.241Z,2.92
2023-04-11T23:20:53.298Z,2.17
2023-04-11T23:24:35.795Z,1.98
2023-04-11T23:28:27.230Z,1.98
2023-04-11T23:32:09.628Z,2.58
2023-04-11T23:35:52.457Z,1.77
2023-04-11T23:39:36.954Z,1.70
2023-04-11T23:43:19.351Z,1.38
2023-04-11T23:47:03.828Z,2.07
2023-04-11T23:50:46.035Z,2.10
2023-04-11T23:54:31.487Z,2.05
2023-04-11T23:58:17.407Z,2.03
